sensor_id;sensor_type;location;lat;lon;timestamp;temperature;humidity
32293;DHT22;43233;48.608;8.838;2023-04-03T00:01:55;3.60;83.20
32293;DHT22;43233;48.608;8.838;2023-04-03T00:04:21;3.60;82.80
32293;DHT22;43233;48.608;8.838;2023-04-03T00:06:46;3.60;81.50
32293;DHT22;43233;48.608;8.838;2023-04-03T00:09:12;3.50;82.00
32293;DHT22;43233;48.608;8.838;2023-04-03T00:11:37;3.50;82.20
32293;DHT22;43233;48.608;8.838;2023-04-03T00:14:03;3.50;83.30
32293;DHT22;43233;48.608;8.838;2023-04-03T00:16:29;3.50;82.70
32293;DHT22;43233;48.608;8.838;2023-04-03T00:18:55;3.50;82.20
32293;DHT22;43233;48.608;8.838;2023-04-03T00:21:20;3.50;81.80
32293;DHT22;43233;48.608;8.838;2023-04-03T00:23:46;3.50;82.10
32293;DHT22;43233;48.608;8.838;2023-04-03T00:26:11;3.50;81.90
32293;DHT22;43233;48.608;8.838;2023-04-03T00:28:37;3.50;81.90
32293;DHT22;43233;48.608;8.838;2023-04-03T00:31:03;3.50;82.10
32293;DHT22;43233;48.608;8.838;2023-04-03T00:33:28;3.50;82.40
32293;DHT22;43233;48.608;8.838;2023-04-03T00:35:54;3.50;82.00
32293;DHT22;43233;48.608;8.838;2023-04-03T00:38:20;3.50;82.10
32293;DHT22;43233;48.608;8.838;2023-04-03T00:40:48;3.60;81.80
32293;DHT22;43233;48.608;8.838;2023-04-03T00:43:19;3.60;81.90
32293;DHT22;43233;48.608;8.838;2023-04-03T00:45:47;3.50;81.80
32293;DHT22;43233;48.608;8.838;2023-04-03T00:48:22;3.50;81.90
32293;DHT22;43233;48.608;8.838;2023-04-03T00:50:50;3.50;81.50
32293;DHT22;43233;48.608;8.838;2023-04-03T00:53:22;3.50;81.90
32293;DHT22;43233;48.608;8.838;2023-04-03T00:55:49;3.50;82.10
32293;DHT22;43233;48.608;8.838;2023-04-03T00:58:17;3.50;82.00
32293;DHT22;43233;48.608;8.838;2023-04-03T01:00:50;3.60;81.70
32293;DHT22;43233;48.608;8.838;2023-04-03T01:03:19;3.50;81.80
32293;DHT22;43233;48.608;8.838;2023-04-03T01:05:45;3.50;81.80
32293;DHT22;43233;48.608;8.838;2023-04-03T01:08:11;3.50;81.80
32293;DHT22;43233;48.608;8.838;2023-04-03T01:10:36;3.50;82.10
32293;DHT22;43233;48.608;8.838;2023-04-03T01:13:21;3.50;82.00
32293;DHT22;43233;48.608;8.838;2023-04-03T01:15:47;3.50;81.70
32293;DHT22;43233;48.608;8.838;2023-04-03T01:18:12;3.50;81.70
32293;DHT22;43233;48.608;8.838;2023-04-03T01:26:17;3.40;81.90
32293;DHT22;43233;48.608;8.838;2023-04-03T01:28:43;3.40;81.80
32293;DHT22;43233;48.608;8.838;2023-04-03T01:31:31;3.40;82.00
32293;DHT22;43233;48.608;8.838;2023-04-03T01:33:59;3.40;82.30
32293;DHT22;43233;48.608;8.838;2023-04-03T01:36:30;3.40;82.50
32293;DHT22;43233;48.608;8.838;2023-04-03T01:38:58;3.40;82.40
32293;DHT22;43233;48.608;8.838;2023-04-03T01:41:24;3.40;82.30
32293;DHT22;43233;48.608;8.838;2023-04-03T01:43:51;3.40;82.00
32293;DHT22;43233;48.608;8.838;2023-04-03T01:46:18;3.40;82.20
32293;DHT22;43233;48.608;8.838;2023-04-03T01:48:43;3.40;81.80
32293;DHT22;43233;48.608;8.838;2023-04-03T01:51:09;3.30;81.70
32293;DHT22;43233;48.608;8.838;2023-04-03T01:53:35;3.30;81.70
32293;DHT22;43233;48.608;8.838;2023-04-03T01:56:01;3.30;81.40
32293;DHT22;43233;48.608;8.838;2023-04-03T01:58:27;3.30;81.40
32293;DHT22;43233;48.608;8.838;2023-04-03T02:00:52;3.30;81.50
32293;DHT22;43233;48.608;8.838;2023-04-03T02:03:18;3.20;80.00
32293;DHT22;43233;48.608;8.838;2023-04-03T02:05:44;3.20;81.00
32293;DHT22;43233;48.608;8.838;2023-04-03T02:08:10;3.20;81.00
32293;DHT22;43233;48.608;8.838;2023-04-03T02:10:36;3.20;80.70
32293;DHT22;43233;48.608;8.838;2023-04-03T02:13:02;3.20;80.70
32293;DHT22;43233;48.608;8.838;2023-04-03T02:15:28;3.20;80.50
32293;DHT22;43233;48.608;8.838;2023-04-03T02:17:54;3.20;80.30
32293;DHT22;43233;48.608;8.838;2023-04-03T02:20:20;3.20;80.50
32293;DHT22;43233;48.608;8.838;2023-04-03T02:22:46;3.10;80.50
32293;DHT22;43233;48.608;8.838;2023-04-03T02:25:11;3.10;80.50
32293;DHT22;43233;48.608;8.838;2023-04-03T02:27:38;3.00;80.30
32293;DHT22;43233;48.608;8.838;2023-04-03T02:30:04;3.00;80.40
32293;DHT22;43233;48.608;8.838;2023-04-03T02:32:31;3.00;80.20
32293;DHT22;43233;48.608;8.838;2023-04-03T02:34:56;3.00;80.20
32293;DHT22;43233;48.608;8.838;2023-04-03T02:37:22;2.90;80.60
32293;DHT22;43233;48.608;8.838;2023-04-03T02:39:47;2.80;80.90
32293;DHT22;43233;48.608;8.838;2023-04-03T02:42:13;2.80;80.80
32293;DHT22;43233;48.608;8.838;2023-04-03T02:44:39;2.80;80.30
32293;DHT22;43233;48.608;8.838;2023-04-03T02:47:04;2.80;80.80
32293;DHT22;43233;48.608;8.838;2023-04-03T02:49:30;2.80;80.50
32293;DHT22;43233;48.608;8.838;2023-04-03T02:51:56;2.70;81.00
32293;DHT22;43233;48.608;8.838;2023-04-03T02:54:22;2.80;80.80
32293;DHT22;43233;48.608;8.838;2023-04-03T02:56:49;2.70;80.70
32293;DHT22;43233;48.608;8.838;2023-04-03T02:59:15;2.60;80.80
32293;DHT22;43233;48.608;8.838;2023-04-03T03:01:41;2.60;81.00
32293;DHT22;43233;48.608;8.838;2023-04-03T03:04:07;2.50;81.10
32293;DHT22;43233;48.608;8.838;2023-04-03T03:06:32;2.50;81.30
32293;DHT22;43233;48.608;8.838;2023-04-03T03:08:58;2.50;81.40
32293;DHT22;43233;48.608;8.838;2023-04-03T03:11:23;2.40;81.30
32293;DHT22;43233;48.608;8.838;2023-04-03T03:13:50;2.40;81.20
32293;DHT22;43233;48.608;8.838;2023-04-03T03:16:16;2.40;81.40
32293;DHT22;43233;48.608;8.838;2023-04-03T03:18:41;2.40;81.60
32293;DHT22;43233;48.608;8.838;2023-04-03T03:21:08;2.30;82.20
32293;DHT22;43233;48.608;8.838;2023-04-03T03:23:34;2.30;82.80
32293;DHT22;43233;48.608;8.838;2023-04-03T03:26:03;2.30;82.80
32293;DHT22;43233;48.608;8.838;2023-04-03T03:28:29;2.30;82.60
32293;DHT22;43233;48.608;8.838;2023-04-03T03:30:54;2.20;82.90
32293;DHT22;43233;48.608;8.838;2023-04-03T03:33:20;2.30;82.90
32293;DHT22;43233;48.608;8.838;2023-04-03T03:35:46;2.30;82.80
32293;DHT22;43233;48.608;8.838;2023-04-03T03:38:11;2.30;82.50
32293;DHT22;43233;48.608;8.838;2023-04-03T03:40:37;2.20;82.90
32293;DHT22;43233;48.608;8.838;2023-04-03T03:43:03;2.20;82.70
32293;DHT22;43233;48.608;8.838;2023-04-03T03:45:28;2.30;82.70
32293;DHT22;43233;48.608;8.838;2023-04-03T03:47:54;2.30;83.10
32293;DHT22;43233;48.608;8.838;2023-04-03T03:50:20;2.30;82.60
32293;DHT22;43233;48.608;8.838;2023-04-03T03:52:46;2.30;82.80
32293;DHT22;43233;48.608;8.838;2023-04-03T03:55:11;2.30;83.30
32293;DHT22;43233;48.608;8.838;2023-04-03T03:57:37;2.30;83.20
32293;DHT22;43233;48.608;8.838;2023-04-03T04:00:03;2.20;82.80
32293;DHT22;43233;48.608;8.838;2023-04-03T04:02:29;2.30;83.00
32293;DHT22;43233;48.608;8.838;2023-04-03T04:04:55;2.30;83.40
32293;DHT22;43233;48.608;8.838;2023-04-03T04:07:21;2.30;83.40
32293;DHT22;43233;48.608;8.838;2023-04-03T04:09:47;2.30;83.30
32293;DHT22;43233;48.608;8.838;2023-04-03T04:12:12;2.30;83.30
32293;DHT22;43233;48.608;8.838;2023-04-03T04:14:38;2.40;83.10
32293;DHT22;43233;48.608;8.838;2023-04-03T04:17:04;2.40;82.80
32293;DHT22;43233;48.608;8.838;2023-04-03T04:19:29;2.40;82.50
32293;DHT22;43233;48.608;8.838;2023-04-03T04:21:55;2.50;82.20
32293;DHT22;43233;48.608;8.838;2023-04-03T04:24:20;2.50;81.50
32293;DHT22;43233;48.608;8.838;2023-04-03T04:26:48;2.50;81.50
32293;DHT22;43233;48.608;8.838;2023-04-03T04:29:14;2.50;81.40
32293;DHT22;43233;48.608;8.838;2023-04-03T04:31:39;2.50;80.90
32293;DHT22;43233;48.608;8.838;2023-04-03T04:34:05;2.50;80.80
32293;DHT22;43233;48.608;8.838;2023-04-03T04:36:31;2.50;80.10
32293;DHT22;43233;48.608;8.838;2023-04-03T04:38:57;2.50;80.50
32293;DHT22;43233;48.608;8.838;2023-04-03T04:41:23;2.50;80.10
32293;DHT22;43233;48.608;8.838;2023-04-03T04:43:50;2.50;80.50
32293;DHT22;43233;48.608;8.838;2023-04-03T04:46:16;2.50;80.10
32293;DHT22;43233;48.608;8.838;2023-04-03T04:48:42;2.50;80.10
32293;DHT22;43233;48.608;8.838;2023-04-03T04:51:08;2.50;80.40
32293;DHT22;43233;48.608;8.838;2023-04-03T04:53:33;2.50;80.40
32293;DHT22;43233;48.608;8.838;2023-04-03T04:55:59;2.50;80.20
32293;DHT22;43233;48.608;8.838;2023-04-03T04:58:25;2.40;80.20
32293;DHT22;43233;48.608;8.838;2023-04-03T05:01:02;2.40;80.10
32293;DHT22;43233;48.608;8.838;2023-04-03T05:03:28;2.50;80.40
32293;DHT22;43233;48.608;8.838;2023-04-03T05:05:54;2.50;80.30
32293;DHT22;43233;48.608;8.838;2023-04-03T05:08:20;2.50;79.80
32293;DHT22;43233;48.608;8.838;2023-04-03T05:10:46;2.60;79.90
32293;DHT22;43233;48.608;8.838;2023-04-03T05:13:12;2.60;79.80
32293;DHT22;43233;48.608;8.838;2023-04-03T05:15:38;2.60;79.50
32293;DHT22;43233;48.608;8.838;2023-04-03T05:18:03;2.60;79.50
32293;DHT22;43233;48.608;8.838;2023-04-03T05:20:30;2.70;79.80
32293;DHT22;43233;48.608;8.838;2023-04-03T05:22:56;2.70;79.50
32293;DHT22;43233;48.608;8.838;2023-04-03T05:25:22;2.70;78.90
32293;DHT22;43233;48.608;8.838;2023-04-03T05:27:48;2.70;79.10
32293;DHT22;43233;48.608;8.838;2023-04-03T05:30:13;2.70;78.20
32293;DHT22;43233;48.608;8.838;2023-04-03T05:32:39;2.70;78.50
32293;DHT22;43233;48.608;8.838;2023-04-03T05:35:06;2.70;78.40
32293;DHT22;43233;48.608;8.838;2023-04-03T05:37:33;2.70;78.60
32293;DHT22;43233;48.608;8.838;2023-04-03T05:39:59;2.70;78.50
32293;DHT22;43233;48.608;8.838;2023-04-03T05:42:25;2.80;77.50
32293;DHT22;43233;48.608;8.838;2023-04-03T05:44:50;2.80;78.00
32293;DHT22;43233;48.608;8.838;2023-04-03T05:47:17;2.80;77.70
32293;DHT22;43233;48.608;8.838;2023-04-03T05:49:42;2.80;76.40
32293;DHT22;43233;48.608;8.838;2023-04-03T05:52:35;2.70;76.40
32293;DHT22;43233;48.608;8.838;2023-04-03T05:55:02;2.70;75.40
32293;DHT22;43233;48.608;8.838;2023-04-03T05:57:27;2.70;74.40
32293;DHT22;43233;48.608;8.838;2023-04-03T05:59:53;2.70;74.10
32293;DHT22;43233;48.608;8.838;2023-04-03T06:02:21;2.80;73.20
32293;DHT22;43233;48.608;8.838;2023-04-03T06:04:47;2.80;72.00
32293;DHT22;43233;48.608;8.838;2023-04-03T06:07:23;2.80;71.10
32293;DHT22;43233;48.608;8.838;2023-04-03T06:09:50;2.90;70.80
32293;DHT22;43233;48.608;8.838;2023-04-03T06:12:16;2.90;70.50
32293;DHT22;43233;48.608;8.838;2023-04-03T06:14:42;2.90;70.70
32293;DHT22;43233;48.608;8.838;2023-04-03T06:17:08;3.00;70.40
32293;DHT22;43233;48.608;8.838;2023-04-03T06:19:35;3.00;71.10
32293;DHT22;43233;48.608;8.838;2023-04-03T06:22:01;3.10;70.90
32293;DHT22;43233;48.608;8.838;2023-04-03T06:24:28;3.10;69.50
32293;DHT22;43233;48.608;8.838;2023-04-03T06:26:54;3.10;67.80
32293;DHT22;43233;48.608;8.838;2023-04-03T06:29:20;3.10;67.40
32293;DHT22;43233;48.608;8.838;2023-04-03T06:31:46;3.20;67.70
32293;DHT22;43233;48.608;8.838;2023-04-03T06:34:12;3.20;66.70
32293;DHT22;43233;48.608;8.838;2023-04-03T06:36:39;3.20;66.40
32293;DHT22;43233;48.608;8.838;2023-04-03T06:39:05;3.30;67.20
32293;DHT22;43233;48.608;8.838;2023-04-03T06:41:31;3.30;67.30
32293;DHT22;43233;48.608;8.838;2023-04-03T06:43:57;3.40;66.90
32293;DHT22;43233;48.608;8.838;2023-04-03T06:46:24;3.40;66.40
32293;DHT22;43233;48.608;8.838;2023-04-03T06:48:51;3.30;67.80
32293;DHT22;43233;48.608;8.838;2023-04-03T06:51:21;3.30;68.70
32293;DHT22;43233;48.608;8.838;2023-04-03T06:53:48;3.20;68.50
32293;DHT22;43233;48.608;8.838;2023-04-03T06:56:14;3.10;69.90
32293;DHT22;43233;48.608;8.838;2023-04-03T06:58:40;3.00;70.40
32293;DHT22;43233;48.608;8.838;2023-04-03T07:01:07;3.00;70.40
32293;DHT22;43233;48.608;8.838;2023-04-03T07:03:33;3.00;71.00
32293;DHT22;43233;48.608;8.838;2023-04-03T07:05:58;2.90;70.50
32293;DHT22;43233;48.608;8.838;2023-04-03T07:08:24;3.00;70.90
32293;DHT22;43233;48.608;8.838;2023-04-03T07:10:51;3.00;70.10
32293;DHT22;43233;48.608;8.838;2023-04-03T07:13:17;3.10;70.20
32293;DHT22;43233;48.608;8.838;2023-04-03T07:15:42;3.10;70.10
32293;DHT22;43233;48.608;8.838;2023-04-03T07:18:08;3.20;69.30
32293;DHT22;43233;48.608;8.838;2023-04-03T07:20:33;3.30;69.50
32293;DHT22;43233;48.608;8.838;2023-04-03T07:22:59;3.40;68.20
32293;DHT22;43233;48.608;8.838;2023-04-03T07:25:27;3.40;69.10
32293;DHT22;43233;48.608;8.838;2023-04-03T07:27:53;3.50;68.40
32293;DHT22;43233;48.608;8.838;2023-04-03T07:30:20;3.50;67.60
32293;DHT22;43233;48.608;8.838;2023-04-03T07:32:46;3.60;67.60
32293;DHT22;43233;48.608;8.838;2023-04-03T07:35:12;3.60;68.40
32293;DHT22;43233;48.608;8.838;2023-04-03T07:37:37;3.70;68.00
32293;DHT22;43233;48.608;8.838;2023-04-03T07:40:03;3.80;67.70
32293;DHT22;43233;48.608;8.838;2023-04-03T07:42:29;3.80;66.70
32293;DHT22;43233;48.608;8.838;2023-04-03T07:44:55;3.90;67.00
32293;DHT22;43233;48.608;8.838;2023-04-03T07:47:22;3.80;67.00
32293;DHT22;43233;48.608;8.838;2023-04-03T07:49:47;3.80;66.50
32293;DHT22;43233;48.608;8.838;2023-04-03T07:52:13;3.90;66.90
32293;DHT22;43233;48.608;8.838;2023-04-03T07:54:41;3.90;67.70
32293;DHT22;43233;48.608;8.838;2023-04-03T07:57:07;4.00;67.80
32293;DHT22;43233;48.608;8.838;2023-04-03T07:59:33;4.10;67.20
32293;DHT22;43233;48.608;8.838;2023-04-03T08:01:58;4.10;66.50
32293;DHT22;43233;48.608;8.838;2023-04-03T08:04:24;4.10;67.30
32293;DHT22;43233;48.608;8.838;2023-04-03T08:06:51;4.20;66.60
32293;DHT22;43233;48.608;8.838;2023-04-03T08:09:17;4.10;65.60
32293;DHT22;43233;48.608;8.838;2023-04-03T08:11:44;4.20;66.80
32293;DHT22;43233;48.608;8.838;2023-04-03T08:14:10;4.30;66.20
32293;DHT22;43233;48.608;8.838;2023-04-03T08:16:41;4.30;66.90
32293;DHT22;43233;48.608;8.838;2023-04-03T08:19:07;4.40;67.30
32293;DHT22;43233;48.608;8.838;2023-04-03T08:21:33;4.50;65.60
32293;DHT22;43233;48.608;8.838;2023-04-03T08:23:58;4.60;64.80
32293;DHT22;43233;48.608;8.838;2023-04-03T08:26:24;4.70;64.90
32293;DHT22;43233;48.608;8.838;2023-04-03T08:28:52;4.70;64.80
32293;DHT22;43233;48.608;8.838;2023-04-03T08:31:19;4.80;64.20
32293;DHT22;43233;48.608;8.838;2023-04-03T08:33:45;4.80;64.50
32293;DHT22;43233;48.608;8.838;2023-04-03T08:36:19;4.90;64.20
32293;DHT22;43233;48.608;8.838;2023-04-03T08:38:46;4.90;64.10
32293;DHT22;43233;48.608;8.838;2023-04-03T08:41:29;5.00;65.20
32293;DHT22;43233;48.608;8.838;2023-04-03T08:44:47;5.10;64.40
32293;DHT22;43233;48.608;8.838;2023-04-03T08:47:19;5.00;64.10
32293;DHT22;43233;48.608;8.838;2023-04-03T08:49:49;5.00;63.90
32293;DHT22;43233;48.608;8.838;2023-04-03T08:52:38;5.00;64.40
32293;DHT22;43233;48.608;8.838;2023-04-03T08:55:28;5.00;64.00
32293;DHT22;43233;48.608;8.838;2023-04-03T08:58:11;4.90;64.00
32293;DHT22;43233;48.608;8.838;2023-04-03T09:00:54;4.90;64.10
32293;DHT22;43233;48.608;8.838;2023-04-03T09:03:22;4.90;64.70
32293;DHT22;43233;48.608;8.838;2023-04-03T09:05:58;5.00;64.40
32293;DHT22;43233;48.608;8.838;2023-04-03T09:08:31;5.00;65.00
32293;DHT22;43233;48.608;8.838;2023-04-03T09:21:57;4.80;63.70
32293;DHT22;43233;48.608;8.838;2023-04-03T09:24:23;4.70;65.40
32293;DHT22;43233;48.608;8.838;2023-04-03T09:27:03;4.70;64.00
32293;DHT22;43233;48.608;8.838;2023-04-03T09:29:31;4.70;65.10
32293;DHT22;43233;48.608;8.838;2023-04-03T09:32:00;4.80;64.90
32293;DHT22;43233;48.608;8.838;2023-04-03T09:34:32;4.80;63.70
32293;DHT22;43233;48.608;8.838;2023-04-03T09:37:02;4.80;64.40
32293;DHT22;43233;48.608;8.838;2023-04-03T09:39:52;4.80;65.80
32293;DHT22;43233;48.608;8.838;2023-04-03T09:42:25;4.80;66.10
32293;DHT22;43233;48.608;8.838;2023-04-03T09:45:02;4.90;65.70
32293;DHT22;43233;48.608;8.838;2023-04-03T09:47:33;5.00;63.60
32293;DHT22;43233;48.608;8.838;2023-04-03T09:50:20;4.90;63.20
32293;DHT22;43233;48.608;8.838;2023-04-03T09:52:48;4.90;64.70
32293;DHT22;43233;48.608;8.838;2023-04-03T09:55:17;4.90;65.00
32293;DHT22;43233;48.608;8.838;2023-04-03T09:57:45;5.00;64.50
32293;DHT22;43233;48.608;8.838;2023-04-03T10:00:25;5.00;64.80
32293;DHT22;43233;48.608;8.838;2023-04-03T10:02:54;5.10;64.40
32293;DHT22;43233;48.608;8.838;2023-04-03T10:05:41;5.10;63.40
32293;DHT22;43233;48.608;8.838;2023-04-03T10:10:39;5.20;63.30
32293;DHT22;43233;48.608;8.838;2023-04-03T10:13:18;5.20;62.60
32293;DHT22;43233;48.608;8.838;2023-04-03T10:16:07;5.20;62.00
32293;DHT22;43233;48.608;8.838;2023-04-03T10:26:45;5.30;63.00
32293;DHT22;43233;48.608;8.838;2023-04-03T10:32:02;5.30;63.00
32293;DHT22;43233;48.608;8.838;2023-04-03T10:34:45;5.40;62.70
32293;DHT22;43233;48.608;8.838;2023-04-03T10:37:22;5.40;62.00
32293;DHT22;43233;48.608;8.838;2023-04-03T10:43:17;5.30;62.90
32293;DHT22;43233;48.608;8.838;2023-04-03T10:45:51;5.30;61.00
32293;DHT22;43233;48.608;8.838;2023-04-03T10:50:55;5.30;60.10
32293;DHT22;43233;48.608;8.838;2023-04-03T10:53:25;5.40;58.60
32293;DHT22;43233;48.608;8.838;2023-04-03T10:56:15;5.50;59.40
32293;DHT22;43233;48.608;8.838;2023-04-03T10:58:45;5.60;58.30
32293;DHT22;43233;48.608;8.838;2023-04-03T11:01:17;5.60;57.70
32293;DHT22;43233;48.608;8.838;2023-04-03T11:03:47;5.50;59.20
32293;DHT22;43233;48.608;8.838;2023-04-03T11:06:16;5.50;60.40
32293;DHT22;43233;48.608;8.838;2023-04-03T11:09:02;5.50;60.60
32293;DHT22;43233;48.608;8.838;2023-04-03T11:11:36;5.60;61.20
32293;DHT22;43233;48.608;8.838;2023-04-03T11:14:11;5.60;59.50
32293;DHT22;43233;48.608;8.838;2023-04-03T11:16:45;5.60;58.80
32293;DHT22;43233;48.608;8.838;2023-04-03T11:19:34;5.60;59.00
32293;DHT22;43233;48.608;8.838;2023-04-03T11:22:23;5.40;59.40
32293;DHT22;43233;48.608;8.838;2023-04-03T11:25:19;5.40;61.00
32293;DHT22;43233;48.608;8.838;2023-04-03T11:28:02;5.30;58.80
32293;DHT22;43233;48.608;8.838;2023-04-03T11:35:53;5.40;60.00
32293;DHT22;43233;48.608;8.838;2023-04-03T11:38:27;5.50;59.90
32293;DHT22;43233;48.608;8.838;2023-04-03T11:40:55;5.60;60.40
32293;DHT22;43233;48.608;8.838;2023-04-03T11:43:28;5.70;60.10
32293;DHT22;43233;48.608;8.838;2023-04-03T11:50:58;5.80;58.40
32293;DHT22;43233;48.608;8.838;2023-04-03T11:53:28;5.70;56.70
32293;DHT22;43233;48.608;8.838;2023-04-03T11:56:27;5.60;56.60
32293;DHT22;43233;48.608;8.838;2023-04-03T12:01:47;5.80;57.10
32293;DHT22;43233;48.608;8.838;2023-04-03T12:04:14;6.00;57.50
32293;DHT22;43233;48.608;8.838;2023-04-03T12:06:47;6.00;56.20
32293;DHT22;43233;48.608;8.838;2023-04-03T12:09:54;6.10;57.20
32293;DHT22;43233;48.608;8.838;2023-04-03T12:12:30;6.00;58.10
32293;DHT22;43233;48.608;8.838;2023-04-03T12:17:49;6.00;57.10
32293;DHT22;43233;48.608;8.838;2023-04-03T12:23:29;6.00;56.80
32293;DHT22;43233;48.608;8.838;2023-04-03T12:26:19;5.90;56.90
32293;DHT22;43233;48.608;8.838;2023-04-03T12:28:48;6.00;57.70
32293;DHT22;43233;48.608;8.838;2023-04-03T12:31:15;6.10;57.90
32293;DHT22;43233;48.608;8.838;2023-04-03T12:34:15;6.10;57.90
32293;DHT22;43233;48.608;8.838;2023-04-03T12:39:28;6.20;56.00
32293;DHT22;43233;48.608;8.838;2023-04-03T12:42:10;6.10;56.40
32293;DHT22;43233;48.608;8.838;2023-04-03T12:44:44;6.20;56.40
32293;DHT22;43233;48.608;8.838;2023-04-03T12:47:31;6.10;56.10
32293;DHT22;43233;48.608;8.838;2023-04-03T12:49:59;6.10;56.50
32293;DHT22;43233;48.608;8.838;2023-04-03T12:52:33;6.10;55.70
32293;DHT22;43233;48.608;8.838;2023-04-03T12:55:01;6.10;54.30
32293;DHT22;43233;48.608;8.838;2023-04-03T12:57:30;6.20;55.20
32293;DHT22;43233;48.608;8.838;2023-04-03T12:59:58;6.30;54.20
32293;DHT22;43233;48.608;8.838;2023-04-03T13:02:32;6.30;54.60
32293;DHT22;43233;48.608;8.838;2023-04-03T13:05:08;6.20;54.50
32293;DHT22;43233;48.608;8.838;2023-04-03T13:07:36;6.20;55.00
32293;DHT22;43233;48.608;8.838;2023-04-03T13:10:17;6.10;54.60
32293;DHT22;43233;48.608;8.838;2023-04-03T13:12:53;6.20;55.20
32293;DHT22;43233;48.608;8.838;2023-04-03T13:15:25;6.10;54.60
32293;DHT22;43233;48.608;8.838;2023-04-03T13:17:52;6.10;55.30
32293;DHT22;43233;48.608;8.838;2023-04-03T13:20:48;6.00;54.90
32293;DHT22;43233;48.608;8.838;2023-04-03T13:23:16;6.00;54.60
32293;DHT22;43233;48.608;8.838;2023-04-03T13:25:44;6.00;54.20
32293;DHT22;43233;48.608;8.838;2023-04-03T13:28:15;5.80;53.60
32293;DHT22;43233;48.608;8.838;2023-04-03T13:31:05;5.90;54.10
32293;DHT22;43233;48.608;8.838;2023-04-03T13:33:34;5.90;54.50
32293;DHT22;43233;48.608;8.838;2023-04-03T13:36:13;5.90;54.40
32293;DHT22;43233;48.608;8.838;2023-04-03T13:38:42;6.10;54.00
32293;DHT22;43233;48.608;8.838;2023-04-03T13:41:29;6.10;53.80
32293;DHT22;43233;48.608;8.838;2023-04-03T13:43:55;6.20;53.60
32293;DHT22;43233;48.608;8.838;2023-04-03T13:46:27;6.30;52.70
32293;DHT22;43233;48.608;8.838;2023-04-03T13:48:55;6.50;53.30
32293;DHT22;43233;48.608;8.838;2023-04-03T13:51:24;6.40;51.60
32293;DHT22;43233;48.608;8.838;2023-04-03T13:53:59;6.40;53.40
32293;DHT22;43233;48.608;8.838;2023-04-03T13:56:32;6.30;51.30
32293;DHT22;43233;48.608;8.838;2023-04-03T13:59:21;6.20;52.70
32293;DHT22;43233;48.608;8.838;2023-04-03T14:07:11;6.00;53.00
32293;DHT22;43233;48.608;8.838;2023-04-03T14:09:37;5.90;52.80
32293;DHT22;43233;48.608;8.838;2023-04-03T14:12:08;5.90;50.50
32293;DHT22;43233;48.608;8.838;2023-04-03T14:14:37;5.80;50.60
32293;DHT22;43233;48.608;8.838;2023-04-03T14:17:19;5.90;51.60
32293;DHT22;43233;48.608;8.838;2023-04-03T14:19:45;5.90;52.40
32293;DHT22;43233;48.608;8.838;2023-04-03T14:22:22;6.00;52.80
32293;DHT22;43233;48.608;8.838;2023-04-03T14:24:49;6.10;50.70
32293;DHT22;43233;48.608;8.838;2023-04-03T14:27:27;6.00;50.70
32293;DHT22;43233;48.608;8.838;2023-04-03T14:29:55;6.10;50.20
32293;DHT22;43233;48.608;8.838;2023-04-03T14:32:23;6.00;49.60
32293;DHT22;43233;48.608;8.838;2023-04-03T14:34:49;6.00;51.10
32293;DHT22;43233;48.608;8.838;2023-04-03T14:37:18;6.00;51.70
32293;DHT22;43233;48.608;8.838;2023-04-03T14:39:46;6.00;51.10
32293;DHT22;43233;48.608;8.838;2023-04-03T14:42:15;5.90;50.60
32293;DHT22;43233;48.608;8.838;2023-04-03T14:44:41;5.80;52.40
32293;DHT22;43233;48.608;8.838;2023-04-03T14:47:15;5.90;51.80
32293;DHT22;43233;48.608;8.838;2023-04-03T14:49:42;5.80;52.00
32293;DHT22;43233;48.608;8.838;2023-04-03T14:52:23;5.70;51.20
32293;DHT22;43233;48.608;8.838;2023-04-03T14:54:50;5.70;52.10
32293;DHT22;43233;48.608;8.838;2023-04-03T14:57:17;5.80;52.20
32293;DHT22;43233;48.608;8.838;2023-04-03T14:59:44;5.90;51.10
32293;DHT22;43233;48.608;8.838;2023-04-03T15:04:58;6.10;52.50
32293;DHT22;43233;48.608;8.838;2023-04-03T15:07:26;6.20;51.40
32293;DHT22;43233;48.608;8.838;2023-04-03T15:09:53;6.20;50.00
32293;DHT22;43233;48.608;8.838;2023-04-03T15:12:22;6.20;50.20
32293;DHT22;43233;48.608;8.838;2023-04-03T15:14:47;6.30;50.50
32293;DHT22;43233;48.608;8.838;2023-04-03T15:17:21;6.20;49.70
32293;DHT22;43233;48.608;8.838;2023-04-03T15:19:48;6.10;49.10
32293;DHT22;43233;48.608;8.838;2023-04-03T15:22:18;6.00;49.40
32293;DHT22;43233;48.608;8.838;2023-04-03T15:24:44;5.90;50.40
32293;DHT22;43233;48.608;8.838;2023-04-03T15:27:11;5.80;50.00
32293;DHT22;43233;48.608;8.838;2023-04-03T15:29:38;5.90;51.50
32293;DHT22;43233;48.608;8.838;2023-04-03T15:32:05;6.10;50.70
32293;DHT22;43233;48.608;8.838;2023-04-03T15:34:31;6.50;50.30
32293;DHT22;43233;48.608;8.838;2023-04-03T15:36:57;7.10;48.80
32293;DHT22;43233;48.608;8.838;2023-04-03T15:39:23;7.30;47.40
32293;DHT22;43233;48.608;8.838;2023-04-03T15:41:49;7.40;48.00
32293;DHT22;43233;48.608;8.838;2023-04-03T15:44:17;7.30;46.60
32293;DHT22;43233;48.608;8.838;2023-04-03T15:46:46;7.20;46.80
32293;DHT22;43233;48.608;8.838;2023-04-03T15:49:14;7.20;47.20
32293;DHT22;43233;48.608;8.838;2023-04-03T15:51:40;7.30;47.60
32293;DHT22;43233;48.608;8.838;2023-04-03T15:54:06;7.50;48.40
32293;DHT22;43233;48.608;8.838;2023-04-03T15:56:32;7.90;48.00
32293;DHT22;43233;48.608;8.838;2023-04-03T15:58:57;8.40;47.40
32293;DHT22;43233;48.608;8.838;2023-04-03T16:01:23;9.00;45.50
32293;DHT22;43233;48.608;8.838;2023-04-03T16:03:49;9.40;43.10
32293;DHT22;43233;48.608;8.838;2023-04-03T16:06:16;9.30;42.90
32293;DHT22;43233;48.608;8.838;2023-04-03T16:08:44;9.20;41.30
32293;DHT22;43233;48.608;8.838;2023-04-03T16:11:10;8.80;41.60
32293;DHT22;43233;48.608;8.838;2023-04-03T16:13:35;8.40;42.50
32293;DHT22;43233;48.608;8.838;2023-04-03T16:16:01;8.10;43.30
32293;DHT22;43233;48.608;8.838;2023-04-03T16:18:28;7.90;44.30
32293;DHT22;43233;48.608;8.838;2023-04-03T16:20:54;7.80;45.00
32293;DHT22;43233;48.608;8.838;2023-04-03T16:23:20;7.40;45.00
32293;DHT22;43233;48.608;8.838;2023-04-03T16:25:46;7.40;46.10
32293;DHT22;43233;48.608;8.838;2023-04-03T16:28:16;7.30;45.20
32293;DHT22;43233;48.608;8.838;2023-04-03T16:30:46;7.30;45.90
32293;DHT22;43233;48.608;8.838;2023-04-03T16:33:13;7.30;45.30
32293;DHT22;43233;48.608;8.838;2023-04-03T16:35:39;7.10;44.50
32293;DHT22;43233;48.608;8.838;2023-04-03T16:38:05;7.00;45.50
32293;DHT22;43233;48.608;8.838;2023-04-03T16:40:30;7.00;46.50
32293;DHT22;43233;48.608;8.838;2023-04-03T16:42:56;6.90;47.30
32293;DHT22;43233;48.608;8.838;2023-04-03T16:45:22;6.80;45.60
32293;DHT22;43233;48.608;8.838;2023-04-03T16:47:47;6.70;45.70
32293;DHT22;43233;48.608;8.838;2023-04-03T16:50:13;6.50;45.30
32293;DHT22;43233;48.608;8.838;2023-04-03T16:52:39;6.20;45.70
32293;DHT22;43233;48.608;8.838;2023-04-03T16:55:05;6.00;46.30
32293;DHT22;43233;48.608;8.838;2023-04-03T16:57:31;5.90;47.10
32293;DHT22;43233;48.608;8.838;2023-04-03T16:59:57;5.90;46.50
32293;DHT22;43233;48.608;8.838;2023-04-03T17:02:23;5.80;46.90
32293;DHT22;43233;48.608;8.838;2023-04-03T17:04:53;5.80;48.00